MUCF

Details ICAO MUCF (CFG)
Name JAIME GONZALEZ
Region Cuba
Timezone America/Havana (UTC-5.0)
Plans Departing 8
Arriving 9
Stats Elevation 102 ft / 31 m (AMSL)
Location 22.149850° -80.414310°
Runways 1
Magnetic Variation 6.010° W
Sunrise 2017-12-16 11:55:15 UTC / 2017-12-16 06:55:15 Local
Sunset 2017-12-16 22:42:18 UTC / 2017-12-16 17:42:18 Local
Advertisement - Login to hide

Runways

ID Width Length Bearing (true) Bearing (mag) Surface Threshold Offset Overrun Length
02 148 ft / 45 m 7,908 ft / 2,410 m 15.87° 21.88° Asphalt 0 ft / 0 m 120 ft / 37 m
20 148 ft / 45 m 7,908 ft / 2,410 m 195.87° 201.88° Asphalt 0 ft / 0 m 0 ft / 0 m

Map

Weather


0- 5 10 15 20 25 30 35+ Temperature / ° C

Clouds and Precipitation
Forecast for 2017-12-16 12:00 UTC. Updated 14 minutes ago

Ground ~20,000 ft ~40,000 ft Winds

METAR

MUCF 160858Z AUTO 07009KT 22/21 Q1019

TAF

Not found

Frequencies

Tower 118.90 MHz CIENFUEGOS TWR
Warning: Do not use this data for real-world aviation or navigation. No guarantee of current accuracy is given.